Terminal Aerodrome Forecast
Issued by NWS

Current Version | Previous Version | Text Only | Print | Product List | Glossary On
Versions: 1 2 3 4 5 6 7 8 9 10 11 12 13 14 15 16 17 18 19 20 21 22 23 24 25 26 27 28 29 30
334
FTUS44 KLZK 181856 AAA
TAFLIT
TAF AMD
KLIT 181856Z 1819/1918 24007KT P6SM FEW020 SCT250
     FM190400 20003KT 6SM BR OVC015
     FM190900 22003KT 4SM BR VCSH OVC005=

USA.gov is the U.S. government's official web portal to all federal, state and local government web resources and services.